createdAt,value
2018-08-18T00:00:24.766Z,22.09
2018-08-18T00:02:53.994Z,22.12
2018-08-18T00:05:23.153Z,22.13
2018-08-18T00:07:52.227Z,21.95
2018-08-18T00:10:22.697Z,21.97
2018-08-18T00:12:51.952Z,21.96
2018-08-18T00:15:21.181Z,21.91
2018-08-18T00:17:50.335Z,22.01
2018-08-18T00:20:24.177Z,22.08
2018-08-18T00:22:53.438Z,21.97
2018-08-18T00:25:22.669Z,22.07
2018-08-18T00:27:51.823Z,21.90
2018-08-18T00:30:25.881Z,21.92
2018-08-18T00:32:55.869Z,21.54
2018-08-18T00:35:25.221Z,21.67
2018-08-18T00:37:54.332Z,22.27
2018-08-18T00:40:23.495Z,21.99
2018-08-18T00:42:52.690Z,22.17
2018-08-18T00:45:21.878Z,21.87
2018-08-18T00:47:51.565Z,21.63
2018-08-18T00:50:35.014Z,21.69
2018-08-18T00:53:05.325Z,22.00
2018-08-18T00:55:34.734Z,21.96
2018-08-18T00:58:04.064Z,21.61
2018-08-18T01:00:33.316Z,21.96
2018-08-18T01:03:02.559Z,21.74
2018-08-18T01:05:31.791Z,21.78
2018-08-18T01:08:00.921Z,22.15
2018-08-18T01:10:31.125Z,22.02
2018-08-18T01:13:00.257Z,22.20
2018-08-18T01:15:29.515Z,21.94
2018-08-18T01:17:58.637Z,22.12
2018-08-18T01:20:27.776Z,21.82
2018-08-18T01:23:01.133Z,21.96
2018-08-18T01:25:30.490Z,21.71
2018-08-18T01:28:00.815Z,21.87
2018-08-18T01:30:30.100Z,21.86
2018-08-18T01:32:59.158Z,21.85
2018-08-18T01:35:28.458Z,21.56
2018-08-18T01:37:57.592Z,21.63
2018-08-18T01:40:26.833Z,21.63
2018-08-18T01:42:55.946Z,21.51
2018-08-18T01:45:25.115Z,21.52
2018-08-18T01:47:54.300Z,21.45
2018-08-18T01:50:23.424Z,21.28
2018-08-18T01:52:52.526Z,21.51
2018-08-18T01:55:21.569Z,21.26
2018-08-18T01:57:50.683Z,21.29
2018-08-18T02:00:27.369Z,21.36
2018-08-18T02:02:56.542Z,21.42
2018-08-18T02:05:26.642Z,21.13
2018-08-18T02:07:55.876Z,21.41
2018-08-18T02:10:25.033Z,21.12
2018-08-18T02:13:00.718Z,21.16
2018-08-18T02:15:30.485Z,21.25
2018-08-18T02:17:59.660Z,21.01
2018-08-18T02:20:28.756Z,21.12
2018-08-18T02:22:57.923Z,21.14
2018-08-18T02:25:26.997Z,21.07
2018-08-18T02:27:56.182Z,20.86
2018-08-18T02:30:25.274Z,21.08
2018-08-18T02:32:54.441Z,20.84
2018-08-18T02:35:24.306Z,20.83
2018-08-18T02:37:53.574Z,20.78
2018-08-18T02:40:22.660Z,20.79
2018-08-18T02:43:09.162Z,20.29
2018-08-18T02:45:38.270Z,20.53
2018-08-18T02:48:14.426Z,20.61
2018-08-18T02:50:52.095Z,20.63
2018-08-18T02:53:25.395Z,20.53
2018-08-18T02:55:55.542Z,20.64
2018-08-18T02:58:24.694Z,20.48
2018-08-18T03:00:53.788Z,20.30
2018-08-18T03:03:23.072Z,20.46
2018-08-18T03:05:52.637Z,20.57
2018-08-18T03:08:22.051Z,20.42
2018-08-18T03:10:51.198Z,20.43
2018-08-18T03:13:20.526Z,20.28
2018-08-18T03:15:58.152Z,20.32
2018-08-18T03:18:35.149Z,20.38
2018-08-18T03:21:04.423Z,20.41
2018-08-18T03:23:34.422Z,20.27
2018-08-18T03:26:03.617Z,20.33
2018-08-18T03:28:43.114Z,20.37
2018-08-18T03:31:12.247Z,20.34
2018-08-18T03:33:41.491Z,20.31
2018-08-18T03:36:24.116Z,20.25
2018-08-18T03:38:54.617Z,20.33
2018-08-18T03:41:24.745Z,19.88
2018-08-18T03:43:54.669Z,20.22
2018-08-18T03:46:23.769Z,20.14
2018-08-18T03:48:53.018Z,20.04
2018-08-18T03:51:30.640Z,20.16
2018-08-18T03:54:00.157Z,19.94
2018-08-18T03:56:29.288Z,19.62
2018-08-18T03:58:59.256Z,19.64
2018-08-18T04:01:40.075Z,19.72
2018-08-18T04:04:10.453Z,19.78
2018-08-18T04:06:40.603Z,20.12
2018-08-18T04:09:14.209Z,19.53
2018-08-18T04:11:43.325Z,19.66
2018-08-18T04:14:12.553Z,19.93
2018-08-18T04:16:57.763Z,19.38
2018-08-18T04:19:26.944Z,19.73
2018-08-18T04:21:56.739Z,19.58
2018-08-18T04:24:32.660Z,19.40
2018-08-18T04:27:02.573Z,18.54
2018-08-18T04:29:31.780Z,19.14
2018-08-18T04:32:01.830Z,19.23
2018-08-18T04:34:31.051Z,18.54
2018-08-18T04:37:01.769Z,18.86
2018-08-18T04:39:30.970Z,18.70
2018-08-18T04:42:00.104Z,19.12
2018-08-18T04:44:29.406Z,19.31
2018-08-18T04:46:58.497Z,19.47
2018-08-18T04:49:27.769Z,18.64
2018-08-18T04:51:56.896Z,19.24
2018-08-18T04:54:26.065Z,19.61
2018-08-18T04:56:55.312Z,18.84
2018-08-18T04:59:24.622Z,18.30
2018-08-18T05:01:53.733Z,18.62
2018-08-18T05:04:23.007Z,18.93
2018-08-18T05:06:52.179Z,18.53
2018-08-18T05:09:21.389Z,18.39
2018-08-18T05:11:50.535Z,18.95
2018-08-18T05:14:19.721Z,18.64
2018-08-18T05:16:48.974Z,18.62
2018-08-18T05:19:18.345Z,18.66
2018-08-18T05:21:47.670Z,18.74
2018-08-18T05:24:25.033Z,18.64
2018-08-18T05:26:55.432Z,19.01
2018-08-18T05:29:24.692Z,19.63
2018-08-18T05:31:53.912Z,20.05
2018-08-18T05:34:23.030Z,19.50
2018-08-18T05:36:52.183Z,19.08
2018-08-18T05:39:21.298Z,19.21
2018-08-18T05:41:50.452Z,19.18
2018-08-18T05:44:19.627Z,19.13
2018-08-18T05:46:49.251Z,19.70
2018-08-18T05:49:18.391Z,19.85
2018-08-18T05:51:49.881Z,19.90
2018-08-18T05:54:25.509Z,20.16
2018-08-18T05:56:54.707Z,19.38
2018-08-18T05:59:24.153Z,19.22
2018-08-18T06:01:53.720Z,20.14
2018-08-18T06:04:23.259Z,20.07
2018-08-18T06:06:53.067Z,20.36
2018-08-18T06:09:23.131Z,20.38
2018-08-18T06:11:52.606Z,20.69
2018-08-18T06:14:21.802Z,20.21
2018-08-18T06:16:51.005Z,20.49
2018-08-18T06:19:20.264Z,20.56
2018-08-18T06:21:49.534Z,20.90
2018-08-18T06:24:18.802Z,21.41
2018-08-18T06:26:47.990Z,21.29
2018-08-18T06:29:17.802Z,21.12
2018-08-18T06:31:59.396Z,21.10
2018-08-18T06:34:30.640Z,20.73
2018-08-18T06:37:00.113Z,20.98
2018-08-18T06:39:36.714Z,20.97
2018-08-18T06:42:10.568Z,21.06
2018-08-18T06:44:39.716Z,21.26
2018-08-18T06:47:09.008Z,20.52
2018-08-18T06:49:38.220Z,21.42
2018-08-18T06:52:07.453Z,21.53
2018-08-18T06:54:36.651Z,21.73
2018-08-18T06:57:05.922Z,21.78
2018-08-18T06:59:35.297Z,22.61
2018-08-18T07:02:04.505Z,22.69
2018-08-18T07:04:33.764Z,23.05
2018-08-18T07:07:03.348Z,22.72
2018-08-18T07:09:32.459Z,23.15
2018-08-18T07:12:01.754Z,22.89
2018-08-18T07:14:31.038Z,24.21
2018-08-18T07:17:00.173Z,24.50
2018-08-18T07:19:29.480Z,24.60
2018-08-18T07:21:58.812Z,24.22
2018-08-18T07:24:27.954Z,23.49
2018-08-18T07:26:57.181Z,24.22
2018-08-18T07:29:27.333Z,25.14
2018-08-18T07:31:56.580Z,25.37
2018-08-18T07:34:25.819Z,25.14
2018-08-18T07:36:55.537Z,25.16
2018-08-18T07:39:25.421Z,25.03
2018-08-18T07:41:54.623Z,25.83
2018-08-18T07:44:24.076Z,26.30
2018-08-18T07:46:53.412Z,26.15
2018-08-18T07:49:22.671Z,26.67
2018-08-18T07:51:51.900Z,26.09
2018-08-18T07:54:21.261Z,27.02
2018-08-18T07:56:50.603Z,26.69
2018-08-18T07:59:19.825Z,27.13
2018-08-18T08:01:49.127Z,27.03
2018-08-18T08:04:18.309Z,27.47
2018-08-18T08:06:47.804Z,27.15
2018-08-18T08:09:17.467Z,27.73
2018-08-18T08:11:46.753Z,27.03
2018-08-18T08:14:16.010Z,27.85
2018-08-18T08:16:45.376Z,27.38
2018-08-18T08:19:14.564Z,27.96
2018-08-18T08:21:43.872Z,28.20
2018-08-18T08:24:13.077Z,27.37
2018-08-18T08:26:42.373Z,27.21
2018-08-18T08:29:11.615Z,28.20
2018-08-18T08:31:40.833Z,27.77
2018-08-18T08:34:10.388Z,27.19
2018-08-18T08:36:39.685Z,28.09
2018-08-18T08:39:08.965Z,28.49
2018-08-18T08:41:38.383Z,28.19
2018-08-18T08:44:07.657Z,27.81
2018-08-18T08:46:42.984Z,26.71
2018-08-18T08:49:12.482Z,28.72
2018-08-18T08:51:41.724Z,29.07
2018-08-18T08:54:10.933Z,28.84
2018-08-18T08:56:40.701Z,28.79
2018-08-18T08:59:09.934Z,28.09
2018-08-18T09:01:39.155Z,28.69
2018-08-18T09:04:08.428Z,28.88
2018-08-18T09:06:41.678Z,28.03
2018-08-18T09:09:10.955Z,28.82
2018-08-18T09:11:40.132Z,27.32
2018-08-18T09:14:09.704Z,27.98
2018-08-18T09:16:38.953Z,27.51
2018-08-18T09:19:08.269Z,27.66
2018-08-18T09:21:42.487Z,28.28
2018-08-18T09:24:11.772Z,27.79
2018-08-18T09:26:45.970Z,28.30
2018-08-18T09:29:15.777Z,29.40
2018-08-18T09:31:45.776Z,29.62
2018-08-18T09:34:15.464Z,28.24
2018-08-18T09:36:45.469Z,29.30
2018-08-18T09:39:37.883Z,29.02
2018-08-18T09:42:09.285Z,29.79
2018-08-18T09:44:43.960Z,29.95
2018-08-18T09:47:13.396Z,30.61
2018-08-18T09:49:42.866Z,29.86
2018-08-18T09:52:14.527Z,30.41
2018-08-18T09:54:43.682Z,29.65
2018-08-18T09:57:12.947Z,30.12
2018-08-18T09:59:42.499Z,29.38
2018-08-18T10:02:13.816Z,30.09
2018-08-18T10:04:43.030Z,29.43
2018-08-18T10:07:12.391Z,29.54
2018-08-18T10:09:41.734Z,29.03
2018-08-18T10:12:10.977Z,28.30
2018-08-18T10:14:40.264Z,29.08
2018-08-18T10:17:09.494Z,29.87
2018-08-18T10:19:38.820Z,30.67
2018-08-18T10:22:08.113Z,30.29
2018-08-18T10:24:37.596Z,30.38
2018-08-18T10:27:07.551Z,30.70
2018-08-18T10:29:36.834Z,30.14
2018-08-18T10:32:06.144Z,30.97
2018-08-18T10:34:35.473Z,31.21
2018-08-18T10:37:06.123Z,31.17
2018-08-18T10:39:36.610Z,30.05
2018-08-18T10:42:10.790Z,29.86
2018-08-18T10:44:47.413Z,29.61
2018-08-18T10:47:17.860Z,30.14
2018-08-18T10:49:57.883Z,30.33
2018-08-18T10:52:38.791Z,30.36
2018-08-18T10:55:13.096Z,31.23
2018-08-18T10:57:53.935Z,31.17
2018-08-18T11:00:25.429Z,31.19
2018-08-18T11:02:55.782Z,31.08
2018-08-18T11:05:26.005Z,31.91
2018-08-18T11:08:01.124Z,31.76
2018-08-18T11:10:31.853Z,32.10
2018-08-18T11:13:01.200Z,32.01
2018-08-18T11:15:30.529Z,31.20
2018-08-18T11:18:00.267Z,31.37
2018-08-18T11:20:31.780Z,31.25
2018-08-18T11:23:13.910Z,31.80
2018-08-18T11:25:50.743Z,31.68
2018-08-18T11:28:20.646Z,31.40
2018-08-18T11:30:54.126Z,32.09
2018-08-18T11:33:35.957Z,32.16
2018-08-18T11:36:06.806Z,33.14
2018-08-18T11:38:36.093Z,32.42
2018-08-18T11:41:05.346Z,32.20
2018-08-18T11:43:44.964Z,31.40
2018-08-18T11:46:14.333Z,33.09
2018-08-18T11:48:43.594Z,32.45
2018-08-18T11:51:12.753Z,33.05
2018-08-18T11:53:53.103Z,32.35
2018-08-18T11:56:22.301Z,32.47
2018-08-18T11:59:03.262Z,31.98
2018-08-18T12:01:35.835Z,31.09
2018-08-18T12:04:05.003Z,32.36
2018-08-18T12:06:34.176Z,31.98
2018-08-18T12:09:03.503Z,31.02
2018-08-18T12:11:32.774Z,31.36
2018-08-18T12:14:02.155Z,32.49
2018-08-18T12:16:31.338Z,32.14
2018-08-18T12:19:00.520Z,32.75
2018-08-18T12:21:33.952Z,33.24
2018-08-18T12:24:03.104Z,32.48
2018-08-18T12:26:32.404Z,33.14
2018-08-18T12:29:02.012Z,33.30
2018-08-18T12:31:31.366Z,33.38
2018-08-18T12:34:00.662Z,31.89
2018-08-18T12:36:30.078Z,33.00
2018-08-18T12:38:59.528Z,33.66
2018-08-18T12:41:28.814Z,32.94
2018-08-18T12:43:59.195Z,34.37
2018-08-18T12:46:36.479Z,32.41
2018-08-18T12:49:06.876Z,32.21
2018-08-18T12:51:36.152Z,33.07
2018-08-18T12:54:05.395Z,32.90
2018-08-18T12:56:34.585Z,33.40
2018-08-18T12:59:03.942Z,33.57
2018-08-18T13:01:47.249Z,34.41
2018-08-18T13:04:19.411Z,34.47
2018-08-18T13:06:50.868Z,34.04
2018-08-18T13:09:21.255Z,33.93
2018-08-18T13:11:51.762Z,34.82
2018-08-18T13:14:22.591Z,34.22
2018-08-18T13:16:51.820Z,34.32
2018-08-18T13:19:23.320Z,33.96
2018-08-18T13:21:52.775Z,34.33
2018-08-18T13:24:22.093Z,33.67
2018-08-18T13:26:51.327Z,34.21
2018-08-18T13:29:20.625Z,33.63
2018-08-18T13:31:50.072Z,33.91
2018-08-18T13:34:19.746Z,33.95
2018-08-18T13:36:48.962Z,34.47
2018-08-18T13:39:19.433Z,34.09
2018-08-18T13:41:49.685Z,34.23
2018-08-18T13:44:31.122Z,33.14
2018-08-18T13:47:00.334Z,34.15
2018-08-18T13:49:29.670Z,34.79
2018-08-18T13:51:58.932Z,34.65
2018-08-18T13:54:28.299Z,34.17
2018-08-18T13:56:57.545Z,34.27
2018-08-18T13:59:46.998Z,34.27
2018-08-18T14:02:16.620Z,34.48
2018-08-18T14:04:46.262Z,34.49
2018-08-18T14:07:15.815Z,35.21
2018-08-18T14:09:56.220Z,34.42
2018-08-18T14:12:25.823Z,34.38
2018-08-18T14:14:56.308Z,34.21
2018-08-18T14:17:26.159Z,34.47
2018-08-18T14:19:55.512Z,34.46
2018-08-18T14:22:25.226Z,34.92
2018-08-18T14:24:54.845Z,35.29
2018-08-18T14:27:24.874Z,34.26
2018-08-18T14:29:54.234Z,34.23
2018-08-18T14:32:29.523Z,34.21
2018-08-18T14:35:07.846Z,34.65
2018-08-18T14:37:39.061Z,35.43
2018-08-18T14:40:10.495Z,35.65
2018-08-18T14:42:39.756Z,35.27
2018-08-18T14:45:11.379Z,35.41
2018-08-18T14:47:40.780Z,35.70
2018-08-18T14:50:22.692Z,35.25
2018-08-18T14:52:52.038Z,35.23
2018-08-18T14:55:21.332Z,34.63
2018-08-18T14:57:56.812Z,35.05
2018-08-18T15:00:26.140Z,35.47
2018-08-18T15:02:55.553Z,35.11
2018-08-18T15:05:24.834Z,35.51
2018-08-18T15:07:55.494Z,35.46
2018-08-18T15:10:37.549Z,35.30
2018-08-18T15:13:07.687Z,35.26
2018-08-18T15:15:37.290Z,35.13
2018-08-18T15:18:09.551Z,34.56
2018-08-18T15:20:39.862Z,35.07
2018-08-18T15:23:09.971Z,35.18
2018-08-18T15:25:40.119Z,35.08
2018-08-18T15:28:10.816Z,35.25
2018-08-18T15:30:42.467Z,35.12
2018-08-18T15:33:15.137Z,35.30
2018-08-18T15:35:44.596Z,34.72
2018-08-18T15:38:14.108Z,34.74
2018-08-18T15:40:43.568Z,35.40
2018-08-18T15:43:12.898Z,34.53
2018-08-18T15:45:54.489Z,34.72
2018-08-18T15:48:23.908Z,34.80
2018-08-18T15:50:53.116Z,34.89
2018-08-18T15:53:54.446Z,34.57
2018-08-18T15:56:24.626Z,34.67
2018-08-18T15:58:54.939Z,34.63
2018-08-18T16:01:26.878Z,34.16
2018-08-18T16:03:57.217Z,34.51
2018-08-18T16:06:26.467Z,34.40
2018-08-18T16:08:55.917Z,34.03
2018-08-18T16:11:25.303Z,33.48
2018-08-18T16:13:54.803Z,33.56
2018-08-18T16:16:24.079Z,33.47
2018-08-18T16:19:03.334Z,33.79
2018-08-18T16:21:33.771Z,33.87
2018-08-18T16:24:03.418Z,33.91
2018-08-18T16:26:32.587Z,33.94
2018-08-18T16:29:01.863Z,33.49
2018-08-18T16:31:31.232Z,33.06
2018-08-18T16:34:00.497Z,33.83
2018-08-18T16:36:35.174Z,33.50
2018-08-18T16:39:04.898Z,33.55
2018-08-18T16:41:34.386Z,33.24
2018-08-18T16:44:03.731Z,32.48
2018-08-18T16:46:33.185Z,32.15
2018-08-18T16:49:02.527Z,32.81
2018-08-18T16:51:31.773Z,32.89
2018-08-18T16:54:16.923Z,32.35
2018-08-18T16:56:46.296Z,32.55
2018-08-18T16:59:15.656Z,32.54
2018-08-18T17:01:45.013Z,32.58
2018-08-18T17:04:18.505Z,31.93
2018-08-18T17:06:48.409Z,32.52
2018-08-18T17:09:28.438Z,32.39
2018-08-18T17:12:11.525Z,32.44
2018-08-18T17:14:41.198Z,32.39
2018-08-18T17:17:11.374Z,31.99
2018-08-18T17:19:41.222Z,31.66
2018-08-18T17:22:11.850Z,31.70
2018-08-18T17:24:41.190Z,31.67
2018-08-18T17:27:10.538Z,31.47
2018-08-18T17:29:41.285Z,31.52
2018-08-18T17:32:11.012Z,31.85
2018-08-18T17:34:40.633Z,31.77
2018-08-18T17:37:10.014Z,31.87
2018-08-18T17:39:39.503Z,31.67
2018-08-18T17:42:08.880Z,31.64
2018-08-18T17:44:38.251Z,31.39
2018-08-18T17:47:09.984Z,31.62
2018-08-18T17:49:58.101Z,31.61
2018-08-18T17:52:28.263Z,31.77
2018-08-18T17:55:10.545Z,31.41
2018-08-18T17:57:40.461Z,31.46
2018-08-18T18:00:19.611Z,31.21
2018-08-18T18:02:54.500Z,31.44
2018-08-18T18:05:28.482Z,31.17
2018-08-18T18:08:00.056Z,31.09
2018-08-18T18:10:33.683Z,30.90
2018-08-18T18:13:05.944Z,30.75
2018-08-18T18:15:38.607Z,31.03
2018-08-18T18:18:10.235Z,30.79
2018-08-18T18:20:39.770Z,30.76
2018-08-18T18:23:11.805Z,30.57
2018-08-18T18:25:41.209Z,30.49
2018-08-18T18:28:10.771Z,30.31
2018-08-18T18:30:40.177Z,30.26
2018-08-18T18:33:10.492Z,30.30
2018-08-18T18:35:39.898Z,30.09
2018-08-18T18:38:09.266Z,30.08
2018-08-18T18:40:42.474Z,29.84
2018-08-18T18:43:11.859Z,29.58
2018-08-18T18:45:41.289Z,29.99
2018-08-18T18:48:12.918Z,30.09
2018-08-18T18:50:43.863Z,30.07
2018-08-18T18:53:13.130Z,29.75
2018-08-18T18:55:47.310Z,29.27
2018-08-18T18:58:16.703Z,29.62
2018-08-18T19:00:55.837Z,29.10
2018-08-18T19:03:25.021Z,28.65
2018-08-18T19:05:54.488Z,28.98
2018-08-18T19:08:23.749Z,28.30
2018-08-18T19:10:53.018Z,28.27
2018-08-18T19:13:22.248Z,28.53
2018-08-18T19:15:51.516Z,28.66
2018-08-18T19:18:20.805Z,29.06
2018-08-18T19:20:50.993Z,28.90
2018-08-18T19:23:21.190Z,28.64
2018-08-18T19:25:51.694Z,28.50
2018-08-18T19:28:22.872Z,27.72
2018-08-18T19:30:52.173Z,28.41
2018-08-18T19:33:21.510Z,27.91
2018-08-18T19:35:52.198Z,27.84
2018-08-18T19:38:22.269Z,27.37
2018-08-18T19:40:55.016Z,27.60
2018-08-18T19:43:25.372Z,27.48
2018-08-18T19:45:55.204Z,27.12
2018-08-18T19:48:28.707Z,27.85
2018-08-18T19:51:04.567Z,27.75
2018-08-18T19:53:35.117Z,27.80
2018-08-18T19:56:08.880Z,27.26
2018-08-18T19:58:38.123Z,27.72
2018-08-18T20:01:07.963Z,27.51
2018-08-18T20:03:37.184Z,27.34
2018-08-18T20:06:10.461Z,27.52
2018-08-18T20:08:39.800Z,27.27
2018-08-18T20:11:09.074Z,27.14
2018-08-18T20:13:38.283Z,27.03
2018-08-18T20:16:07.825Z,26.57
2018-08-18T20:18:37.110Z,26.54
2018-08-18T20:21:06.414Z,26.84
2018-08-18T20:23:35.731Z,25.40
2018-08-18T20:26:05.107Z,24.63
2018-08-18T20:28:34.529Z,24.69
2018-08-18T20:31:03.778Z,24.79
2018-08-18T20:33:32.971Z,25.38
2018-08-18T20:36:02.214Z,25.74
2018-08-18T20:38:49.768Z,25.87
2018-08-18T20:41:19.059Z,26.38
2018-08-18T20:43:49.141Z,26.35
2018-08-18T20:46:18.318Z,26.25
2018-08-18T20:48:48.554Z,25.97
2018-08-18T20:51:21.836Z,25.92
2018-08-18T20:53:51.103Z,26.30
2018-08-18T20:56:20.470Z,26.25
2018-08-18T20:58:49.770Z,26.13
2018-08-18T21:01:19.034Z,26.14
2018-08-18T21:03:50.494Z,25.96
2018-08-18T21:06:20.321Z,25.46
2018-08-18T21:08:49.522Z,25.27
2018-08-18T21:11:18.886Z,25.10
2018-08-18T21:13:51.080Z,24.61
2018-08-18T21:16:21.225Z,25.09
2018-08-18T21:18:50.493Z,24.86
2018-08-18T21:21:32.314Z,25.40
2018-08-18T21:24:01.508Z,25.08
2018-08-18T21:26:30.784Z,25.01
2018-08-18T21:29:00.019Z,25.02
2018-08-18T21:31:36.500Z,25.38
2018-08-18T21:34:06.994Z,25.59
2018-08-18T21:36:36.462Z,25.82
2018-08-18T21:39:09.754Z,25.86
2018-08-18T21:41:43.879Z,24.91
2018-08-18T21:44:14.239Z,25.21
2018-08-18T21:46:43.797Z,25.45
2018-08-18T21:49:13.469Z,25.27
2018-08-18T21:51:42.670Z,25.41
2018-08-18T21:54:11.797Z,24.75
2018-08-18T21:56:42.473Z,25.02
2018-08-18T21:59:12.852Z,25.40
2018-08-18T22:01:42.252Z,25.45
2018-08-18T22:04:11.378Z,25.12
2018-08-18T22:06:40.602Z,25.36
2018-08-18T22:09:25.249Z,25.20
2018-08-18T22:11:54.430Z,25.31
2018-08-18T22:14:23.634Z,24.78
2018-08-18T22:16:55.842Z,24.90
2018-08-18T22:19:25.255Z,24.71
2018-08-18T22:21:54.465Z,24.79
2018-08-18T22:24:23.615Z,24.09
2018-08-18T22:26:52.907Z,24.16
2018-08-18T22:29:24.606Z,24.27
2018-08-18T22:31:53.863Z,23.93
2018-08-18T22:34:23.150Z,23.88
2018-08-18T22:36:56.280Z,24.28
2018-08-18T22:39:25.441Z,24.07
2018-08-18T22:41:54.620Z,24.17
2018-08-18T22:44:23.917Z,24.22
2018-08-18T22:46:53.119Z,24.15
2018-08-18T22:49:22.463Z,24.04
2018-08-18T22:51:51.598Z,23.78
2018-08-18T22:54:20.821Z,23.96
2018-08-18T22:56:54.819Z,23.86
2018-08-18T22:59:24.110Z,24.21
2018-08-18T23:01:53.253Z,24.20
2018-08-18T23:04:29.797Z,23.51
2018-08-18T23:06:59.863Z,24.14
2018-08-18T23:09:29.777Z,23.63
2018-08-18T23:12:00.563Z,23.72
2018-08-18T23:14:32.514Z,23.72
2018-08-18T23:17:02.206Z,23.92
2018-08-18T23:19:32.666Z,23.69
2018-08-18T23:22:02.166Z,23.76
2018-08-18T23:24:35.854Z,23.56
2018-08-18T23:27:05.190Z,23.41
2018-08-18T23:29:34.454Z,23.24
2018-08-18T23:32:16.935Z,23.21
2018-08-18T23:34:46.180Z,23.50
2018-08-18T23:37:19.442Z,23.14
2018-08-18T23:39:52.439Z,23.25
2018-08-18T23:42:24.041Z,23.30
2018-08-18T23:44:53.262Z,23.20
2018-08-18T23:47:22.402Z,23.06
2018-08-18T23:49:51.963Z,23.35
2018-08-18T23:52:21.139Z,23.44
2018-08-18T23:54:50.408Z,23.06
2018-08-18T23:57:19.694Z,22.79
2018-08-18T23:59:49.131Z,22.79
